Time;durP1;ratioP1;P1;durP2;ratioP2;P2;SDS_P1;SDS_P2;PMS_P1;PMS_P2;Temp;Humidity;BMP_temperature;BMP_pressure;BME280_temperature;BME280_humidity;BME280_pressure;Samples;Min_cycle;Max_cycle;Signal;HPM_P1;HPM_P2
2023/12/11 00:01:03;;;;;;;37.63;5.05;;;8.80;99.90;;;;;;5042003;28;20130;-70
2023/12/11 00:03:29;;;;;;;42.67;6.65;;;8.80;99.90;;;;;;5038253;28;20717;-73
2023/12/11 00:05:54;;;;;;;33.92;5.13;;;8.60;99.90;;;;;;5039380;28;20045;-70
2023/12/11 00:08:20;;;;;;;39.15;7.18;;;8.70;99.90;;;;;;5048764;28;20033;-72
2023/12/11 00:10:45;;;;;;;31.85;6.28;;;8.60;99.90;;;;;;5032515;28;20033;-73
2023/12/11 00:13:11;;;;;;;36.13;5.00;;;8.40;99.90;;;;;;5037397;28;20053;-69
2023/12/11 00:15:38;;;;;;;26.33;4.22;;;8.40;99.90;;;;;;5040697;28;20037;-68
2023/12/11 00:18:04;;;;;;;34.05;5.25;;;8.50;99.90;;;;;;5026894;28;20123;-71
2023/12/11 00:20:29;;;;;;;37.47;5.68;;;8.20;99.90;;;;;;5040388;28;20132;-72
2023/12/11 00:22:55;;;;;;;39.58;6.28;;;8.30;99.90;;;;;;5033513;28;20038;-69
2023/12/11 00:25:21;;;;;;;42.15;6.13;;;8.30;99.90;;;;;;5039909;28;20111;-70
2023/12/11 00:27:46;;;;;;;35.05;5.05;;;8.00;99.90;;;;;;5035308;28;20523;-69
2023/12/11 00:30:14;;;;;;;34.90;4.97;;;8.10;99.90;;;;;;5032526;28;20044;-71
2023/12/11 00:32:39;;;;;;;38.00;5.50;;;8.20;99.90;;;;;;5034715;28;20513;-71
2023/12/11 00:35:05;;;;;;;53.10;7.68;;;8.00;99.90;;;;;;5032186;28;20128;-70
2023/12/11 00:37:31;;;;;;;52.58;5.95;;;7.90;99.90;;;;;;5049575;28;20365;-70
2023/12/11 00:39:57;;;;;;;43.10;5.97;;;8.00;99.90;;;;;;5045379;28;20041;-71
2023/12/11 00:42:22;;;;;;;36.42;6.13;;;8.10;99.90;;;;;;5033536;28;20128;-69
2023/12/11 00:44:48;;;;;;;41.00;5.72;;;7.90;99.90;;;;;;5046765;28;20124;-71
2023/12/11 00:47:13;;;;;;;49.58;5.28;;;8.10;99.90;;;;;;5042503;28;20037;-70
2023/12/11 00:49:39;;;;;;;46.08;7.28;;;8.10;99.90;;;;;;5026050;28;20438;-70
2023/12/11 00:52:05;;;;;;;39.33;5.93;;;8.00;99.90;;;;;;5035218;28;20560;-70
2023/12/11 00:54:31;;;;;;;44.88;5.80;;;8.10;99.90;;;;;;5031752;28;20143;-68
2023/12/11 00:56:56;;;;;;;38.67;5.65;;;7.90;99.90;;;;;;5041761;28;20484;-70
2023/12/11 00:59:22;;;;;;;35.53;5.05;;;8.00;99.90;;;;;;5038105;28;20615;-69
2023/12/11 01:01:48;;;;;;;39.03;6.10;;;8.10;99.90;;;;;;5033657;28;20050;-71
2023/12/11 01:04:14;;;;;;;37.85;5.28;;;7.90;99.90;;;;;;5020754;28;20037;-71
2023/12/11 01:06:41;;;;;;;41.90;6.80;;;8.00;99.90;;;;;;5038393;28;20420;-70
2023/12/11 01:09:06;;;;;;;35.25;5.22;;;8.10;99.90;;;;;;5040073;28;20038;-72
2023/12/11 01:11:32;;;;;;;39.55;5.15;;;8.00;99.90;;;;;;5034055;28;20728;-70
2023/12/11 01:13:58;;;;;;;44.22;5.03;;;7.90;99.90;;;;;;5035495;28;20037;-71
2023/12/11 01:16:23;;;;;;;48.05;7.25;;;7.90;99.90;;;;;;5038996;28;20611;-70
2023/12/11 01:18:50;;;;;;;48.88;6.18;;;8.00;99.90;;;;;;5055146;28;20073;-69
2023/12/11 01:21:16;;;;;;;38.72;5.85;;;7.90;99.90;;;;;;5045532;28;20091;-70
2023/12/11 01:23:42;;;;;;;45.75;5.82;;;8.10;99.90;;;;;;5038966;28;20053;-71
2023/12/11 01:26:08;;;;;;;42.63;5.25;;;7.90;99.90;;;;;;5039325;28;20103;-70
2023/12/11 01:28:34;;;;;;;38.50;5.28;;;8.10;99.90;;;;;;5030217;28;20056;-72
2023/12/11 01:30:59;;;;;;;32.28;5.32;;;8.10;99.90;;;;;;5043613;28;20071;-70
2023/12/11 01:33:25;;;;;;;39.60;5.75;;;7.90;99.90;;;;;;5039887;28;20551;-70
2023/12/11 01:35:52;;;;;;;45.50;5.40;;;8.20;99.90;;;;;;5036594;28;20150;-72
2023/12/11 01:38:18;;;;;;;36.78;5.20;;;8.20;99.90;;;;;;5042229;28;20040;-69
2023/12/11 01:40:45;;;;;;;25.67;4.80;;;8.20;99.90;;;;;;5031944;28;20128;-72
2023/12/11 01:43:15;;;;;;;32.53;5.88;;;8.10;99.90;;;;;;5021890;28;20139;-71
2023/12/11 01:45:41;;;;;;;38.60;5.75;;;8.20;99.90;;;;;;5022645;28;20042;-70
2023/12/11 01:48:09;;;;;;;43.70;5.85;;;8.10;99.90;;;;;;5047397;28;20039;-71
2023/12/11 01:50:35;;;;;;;25.05;4.82;;;8.20;99.90;;;;;;5048898;28;20061;-72
2023/12/11 01:53:01;;;;;;;34.60;5.20;;;8.20;99.90;;;;;;5038713;28;20043;-71
2023/12/11 01:55:30;;;;;;;40.90;6.72;;;8.10;99.90;;;;;;5034998;28;20075;-73
2023/12/11 01:57:56;;;;;;;40.50;5.28;;;8.20;99.90;;;;;;5033012;28;20143;-71
2023/12/11 02:00:22;;;;;;;37.35;4.38;;;8.20;99.90;;;;;;5022782;28;20041;-71
2023/12/11 02:02:49;;;;;;;35.00;5.03;;;8.30;99.90;;;;;;5041856;28;20049;-70
2023/12/11 02:05:15;;;;;;;39.17;6.75;;;8.20;99.90;;;;;;5034329;28;20418;-71
2023/12/11 02:07:41;;;;;;;39.30;5.80;;;8.30;99.90;;;;;;5025892;28;20119;-69
2023/12/11 02:10:07;;;;;;;35.08;5.63;;;8.20;99.90;;;;;;5035203;28;20067;-69
2023/12/11 02:12:33;;;;;;;36.30;5.10;;;8.20;99.90;;;;;;5032922;28;20038;-69
2023/12/11 02:14:59;;;;;;;39.30;6.25;;;8.30;99.90;;;;;;5041582;28;20041;-72
2023/12/11 02:17:24;;;;;;;39.15;6.15;;;8.30;99.90;;;;;;5036250;28;20078;-71
2023/12/11 02:19:50;;;;;;;43.15;6.30;;;8.20;99.90;;;;;;5029076;28;20541;-71
2023/12/11 02:22:17;;;;;;;39.30;5.40;;;8.10;99.90;;;;;;5042452;28;20041;-70
2023/12/11 02:24:47;;;;;;;40.75;5.85;;;8.30;99.90;;;;;;5031804;28;20401;-70
2023/12/11 02:27:13;;;;;;;45.58;5.90;;;8.20;99.90;;;;;;5033210;28;20103;-72
2023/12/11 02:29:39;;;;;;;39.25;6.63;;;8.10;99.90;;;;;;5030801;28;20057;-72
2023/12/11 02:32:05;;;;;;;37.25;5.75;;;8.10;99.90;;;;;;5046622;28;20080;-70
2023/12/11 02:34:30;;;;;;;39.90;5.25;;;8.40;99.90;;;;;;5040593;28;20228;-70
2023/12/11 02:36:56;;;;;;;42.53;5.45;;;8.40;99.90;;;;;;5028677;28;20144;-68
2023/12/11 02:39:21;;;;;;;30.23;6.13;;;8.40;99.90;;;;;;5040526;28;20454;-71
2023/12/11 02:41:47;;;;;;;48.53;6.95;;;8.50;99.90;;;;;;5043870;28;20051;-71
2023/12/11 02:44:13;;;;;;;50.60;8.15;;;8.20;99.90;;;;;;5039393;28;20057;-71
2023/12/11 02:46:39;;;;;;;62.17;7.20;;;8.60;99.90;;;;;;5033984;28;20083;-71
2023/12/11 02:49:05;;;;;;;48.38;7.00;;;8.30;99.90;;;;;;5040086;28;20095;-70
2023/12/11 02:51:30;;;;;;;35.78;6.22;;;8.40;99.90;;;;;;5021836;28;20174;-70
2023/12/11 02:53:56;;;;;;;43.78;6.60;;;8.60;99.90;;;;;;5037051;28;20350;-72
2023/12/11 02:56:22;;;;;;;41.55;6.47;;;8.60;99.90;;;;;;5046778;28;20052;-70
2023/12/11 02:58:47;;;;;;;39.10;6.70;;;8.50;99.90;;;;;;5030665;28;20100;-72
2023/12/11 03:01:13;;;;;;;41.45;6.50;;;8.50;99.90;;;;;;5042859;28;20491;-69
2023/12/11 03:03:39;;;;;;;56.58;7.25;;;8.40;99.90;;;;;;5040115;28;20044;-72
2023/12/11 03:06:05;;;;;;;47.60;6.78;;;8.40;99.90;;;;;;5034857;28;20417;-71
2023/12/11 03:08:31;;;;;;;45.95;7.07;;;8.40;99.90;;;;;;5035163;28;20041;-71
2023/12/11 03:10:57;;;;;;;47.85;6.50;;;8.50;99.90;;;;;;5038933;28;20044;-71
2023/12/11 03:13:23;;;;;;;40.22;6.90;;;8.50;99.90;;;;;;5016826;28;20064;-71
2023/12/11 03:15:49;;;;;;;60.83;6.88;;;8.70;99.90;;;;;;5030022;28;20152;-72
2023/12/11 03:18:14;;;;;;;46.08;7.22;;;8.60;99.90;;;;;;5042423;28;20063;-72
2023/12/11 03:20:40;;;;;;;47.25;7.15;;;8.60;99.90;;;;;;5033475;28;20187;-73
2023/12/11 03:23:05;;;;;;;43.63;7.30;;;8.50;99.90;;;;;;5043777;28;20040;-73
2023/12/11 03:25:31;;;;;;;51.30;7.03;;;8.30;99.90;;;;;;5030124;28;20060;-72
2023/12/11 03:27:57;;;;;;;45.17;7.30;;;8.60;99.90;;;;;;5040810;28;20049;-72
2023/12/11 03:30:23;;;;;;;47.90;6.40;;;8.50;99.90;;;;;;5038399;28;20128;-72
2023/12/11 03:32:49;;;;;;;48.65;7.32;;;8.50;99.90;;;;;;5045861;28;20136;-70
2023/12/11 03:35:14;;;;;;;50.95;7.47;;;8.50;99.90;;;;;;5030652;28;20477;-73
2023/12/11 03:37:40;;;;;;;47.95;6.80;;;8.50;99.90;;;;;;5011643;28;20041;-73
2023/12/11 03:40:06;;;;;;;51.22;8.20;;;8.70;99.90;;;;;;5030495;28;20045;-73
2023/12/11 03:42:32;;;;;;;44.92;6.40;;;8.60;99.90;;;;;;5030998;28;20131;-73
2023/12/11 03:44:58;;;;;;;52.33;7.03;;;8.70;99.90;;;;;;5040426;28;20100;-70
2023/12/11 03:47:24;;;;;;;57.15;7.53;;;8.60;99.90;;;;;;5022722;28;20043;-74
2023/12/11 03:49:50;;;;;;;48.53;7.28;;;8.70;99.90;;;;;;5039859;28;20112;-74
2023/12/11 03:52:16;;;;;;;50.33;7.32;;;8.60;99.90;;;;;;5029966;28;20037;-75
2023/12/11 03:54:41;;;;;;;47.60;7.93;;;8.80;99.90;;;;;;5040933;28;20038;-73
2023/12/11 03:57:07;;;;;;;42.75;6.63;;;8.70;99.90;;;;;;5038614;28;20123;-73
2023/12/11 03:59:34;;;;;;;52.85;7.13;;;8.80;99.90;;;;;;5035201;28;20041;-71
2023/12/11 04:01:59;;;;;;;50.95;7.45;;;8.70;99.90;;;;;;5024621;28;20037;-73
2023/12/11 04:04:25;;;;;;;46.78;6.88;;;8.90;99.90;;;;;;5012826;28;20327;-73
2023/12/11 04:06:50;;;;;;;50.97;6.82;;;8.60;99.90;;;;;;5034435;28;20061;-69
2023/12/11 04:09:16;;;;;;;43.95;7.72;;;8.90;99.90;;;;;;5028374;28;20033;-73
2023/12/11 04:11:44;;;;;;;42.67;7.03;;;8.70;99.90;;;;;;5020547;28;20504;-73
2023/12/11 04:14:12;;;;;;;52.22;7.47;;;8.80;99.90;;;;;;5027648;28;20049;-70
2023/12/11 04:16:43;;;;;;;43.00;6.82;;;8.60;99.90;;;;;;5035931;28;20048;-71
2023/12/11 04:19:12;;;;;;;54.83;7.90;;;8.80;99.90;;;;;;5029690;28;20136;-72
2023/12/11 04:21:39;;;;;;;46.88;6.88;;;8.70;99.90;;;;;;5040370;28;20041;-74
2023/12/11 04:24:05;;;;;;;34.42;6.65;;;8.90;99.90;;;;;;5025470;28;20030;-74
2023/12/11 04:26:30;;;;;;;35.55;7.32;;;8.60;99.90;;;;;;5033898;28;20048;-73
2023/12/11 04:28:56;;;;;;;46.10;7.60;;;8.90;99.90;;;;;;5029463;28;20054;-76
2023/12/11 04:31:23;;;;;;;47.30;8.13;;;8.80;99.90;;;;;;5029811;28;20115;-70
2023/12/11 04:33:50;;;;;;;44.45;7.15;;;8.90;99.90;;;;;;5027713;28;20071;-73
2023/12/11 04:36:15;;;;;;;43.78;6.82;;;8.60;99.90;;;;;;5027947;28;20049;-72
2023/12/11 04:38:41;;;;;;;45.38;6.80;;;8.60;99.90;;;;;;5027934;28;20040;-72
2023/12/11 04:41:07;;;;;;;52.35;7.45;;;8.50;99.90;;;;;;5029834;28;20116;-74
2023/12/11 04:43:33;;;;;;;40.58;6.55;;;8.80;99.90;;;;;;5021611;28;20041;-71
2023/12/11 04:46:02;;;;;;;47.35;6.47;;;8.70;99.90;;;;;;5032801;28;20061;-71
2023/12/11 04:48:27;;;;;;;35.72;8.15;;;8.80;99.90;;;;;;5018981;28;20588;-74
2023/12/11 04:50:53;;;;;;;41.17;6.40;;;8.80;99.90;;;;;;5032015;28;20124;-72
2023/12/11 04:53:19;;;;;;;35.38;7.25;;;8.80;99.90;;;;;;5028492;28;20040;-75
2023/12/11 04:55:45;;;;;;;49.25;6.60;;;8.80;99.90;;;;;;5021620;28;20045;-74
2023/12/11 04:58:10;;;;;;;47.30;6.22;;;8.70;99.90;;;;;;5038828;28;20967;-73
2023/12/11 05:00:36;;;;;;;43.45;6.65;;;8.40;99.90;;;;;;5034477;28;20087;-75
2023/12/11 05:03:01;;;;;;;43.28;5.82;;;8.50;99.90;;;;;;5023509;28;20097;-73
2023/12/11 05:05:27;;;;;;;42.88;6.30;;;8.60;99.90;;;;;;5036352;28;20121;-75
2023/12/11 05:07:53;;;;;;;38.55;5.25;;;8.70;99.90;;;;;;5046606;28;20037;-71
2023/12/11 05:10:18;;;;;;;41.22;7.35;;;8.70;99.90;;;;;;5023127;28;20037;-73
2023/12/11 05:12:44;;;;;;;34.10;4.72;;;8.50;99.90;;;;;;5035360;28;20029;-74
2023/12/11 05:15:10;;;;;;;36.55;5.85;;;8.60;99.90;;;;;;5015457;28;20141;-74
2023/12/11 05:17:35;;;;;;;38.10;6.00;;;8.50;99.90;;;;;;5040797;28;22017;-72
2023/12/11 05:20:01;;;;;;;43.83;6.88;;;8.40;99.90;;;;;;5021748;28;20025;-74
2023/12/11 05:22:27;;;;;;;45.28;6.40;;;8.70;99.90;;;;;;5057634;28;20040;-74
2023/12/11 05:24:52;;;;;;;39.20;6.03;;;8.70;99.90;;;;;;5034686;28;20041;-75
2023/12/11 05:27:18;;;;;;;45.55;5.53;;;8.40;99.90;;;;;;5035808;28;20175;-73
2023/12/11 05:29:44;;;;;;;36.72;5.07;;;8.40;99.90;;;;;;5033747;28;20533;-72
2023/12/11 05:32:14;;;;;;;40.80;4.90;;;8.50;99.90;;;;;;5034153;28;20029;-74
2023/12/11 05:34:39;;;;;;;40.33;6.15;;;8.50;99.90;;;;;;5034455;28;20057;-73
2023/12/11 05:37:05;;;;;;;41.92;6.13;;;8.40;99.90;;;;;;5035197;28;20343;-71
2023/12/11 05:39:31;;;;;;;38.45;5.93;;;8.60;99.90;;;;;;5031362;28;20514;-71
2023/12/11 05:41:56;;;;;;;44.08;7.10;;;8.40;99.90;;;;;;5022199;28;20033;-71
2023/12/11 05:44:22;;;;;;;44.80;5.88;;;8.60;99.90;;;;;;5046074;28;20453;-77
2023/12/11 05:46:47;;;;;;;41.38;6.00;;;8.40;99.90;;;;;;5036109;28;20040;-73
2023/12/11 05:49:13;;;;;;;34.40;5.55;;;8.50;99.90;;;;;;5017677;28;20038;-77
2023/12/11 05:51:39;;;;;;;38.80;5.40;;;8.40;99.90;;;;;;5041059;28;20044;-73
2023/12/11 05:54:04;;;;;;;36.47;5.35;;;8.40;99.90;;;;;;5036512;28;20104;-74
2023/12/11 05:56:30;;;;;;;38.88;5.65;;;8.70;99.90;;;;;;5013505;28;20052;-75
2023/12/11 05:58:56;;;;;;;48.30;5.80;;;8.60;99.90;;;;;;5031735;28;20071;-74
2023/12/11 06:01:22;;;;;;;35.20;5.45;;;8.50;99.90;;;;;;5034641;28;20473;-72
2023/12/11 06:03:47;;;;;;;30.55;5.55;;;8.60;99.90;;;;;;5036761;28;20049;-73
2023/12/11 06:06:16;;;;;;;35.33;5.90;;;8.70;99.90;;;;;;5036857;28;20035;-75
2023/12/11 06:08:43;;;;;;;33.13;4.78;;;8.70;99.90;;;;;;5037128;28;20037;-73
2023/12/11 06:11:09;;;;;;;34.78;4.75;;;8.70;99.90;;;;;;5017608;28;20183;-74
2023/12/11 06:13:35;;;;;;;28.05;4.40;;;8.70;99.90;;;;;;5036965;28;20041;-72
2023/12/11 06:16:00;;;;;;;29.73;4.10;;;8.60;99.90;;;;;;5042998;28;20370;-73
2023/12/11 06:18:26;;;;;;;23.02;4.40;;;8.70;99.90;;;;;;5031292;28;20469;-74
2023/12/11 06:20:51;;;;;;;40.08;4.70;;;8.60;99.90;;;;;;5041081;28;20037;-70
2023/12/11 06:23:17;;;;;;;28.52;3.97;;;8.60;99.90;;;;;;5030518;28;20556;-71
2023/12/11 06:25:43;;;;;;;32.38;3.88;;;8.50;99.90;;;;;;5023672;28;20087;-75
2023/12/11 06:28:08;;;;;;;44.00;5.00;;;8.60;99.90;;;;;;5029267;28;20053;-72
2023/12/11 06:30:34;;;;;;;34.15;4.90;;;8.60;99.90;;;;;;5021746;28;20068;-72
2023/12/11 06:33:00;;;;;;;32.40;5.32;;;8.60;99.90;;;;;;5034509;28;20103;-68
2023/12/11 06:35:25;;;;;;;30.38;4.40;;;8.50;99.90;;;;;;5032030;28;20053;-76
2023/12/11 06:37:51;;;;;;;36.50;5.30;;;8.50;99.90;;;;;;5030228;28;20043;-73
2023/12/11 06:40:17;;;;;;;34.20;5.38;;;8.50;99.90;;;;;;5036327;28;20056;-73
2023/12/11 06:42:43;;;;;;;30.73;4.47;;;8.70;99.90;;;;;;5031554;28;20049;-73
2023/12/11 06:45:10;;;;;;;34.03;5.35;;;8.70;99.90;;;;;;5021986;28;20452;-72
2023/12/11 06:47:36;;;;;;;26.40;4.85;;;8.60;99.90;;;;;;5027014;28;20359;-72
2023/12/11 06:50:02;;;;;;;30.92;4.90;;;8.70;99.90;;;;;;5033432;28;20124;-73
2023/12/11 06:52:28;;;;;;;37.28;4.47;;;8.60;99.90;;;;;;5030037;28;20045;-71
2023/12/11 06:54:54;;;;;;;29.45;4.65;;;8.50;99.90;;;;;;5035646;28;20045;-71
2023/12/11 06:57:21;;;;;;;29.02;4.63;;;8.50;99.90;;;;;;5026502;28;20116;-74
2023/12/11 06:59:46;;;;;;;26.17;4.88;;;8.70;99.90;;;;;;5045992;28;20033;-72
2023/12/11 07:02:12;;;;;;;30.27;5.97;;;8.50;99.90;;;;;;5040121;28;20442;-71
2023/12/11 07:04:41;;;;;;;30.00;5.00;;;8.60;99.90;;;;;;5045371;28;20102;-72
2023/12/11 07:07:07;;;;;;;33.42;5.68;;;8.50;99.90;;;;;;5044984;28;20036;-75
2023/12/11 07:09:32;;;;;;;30.83;4.35;;;8.60;99.90;;;;;;5030813;28;20116;-71
2023/12/11 07:11:58;;;;;;;26.08;5.45;;;8.60;99.90;;;;;;5043264;28;20045;-73
2023/12/11 07:14:24;;;;;;;31.40;4.45;;;8.70;99.90;;;;;;5041460;28;20124;-72
2023/12/11 07:16:50;;;;;;;31.17;4.38;;;8.70;99.90;;;;;;5028596;28;20040;-74
2023/12/11 07:19:16;;;;;;;31.00;4.75;;;8.70;99.90;;;;;;5026713;28;20044;-71
2023/12/11 07:21:43;;;;;;;26.80;4.70;;;8.70;99.90;;;;;;5045770;28;20037;-72
2023/12/11 07:24:09;;;;;;;33.72;5.85;;;8.80;99.90;;;;;;5042398;28;20067;-72
2023/12/11 07:26:35;;;;;;;34.35;4.78;;;8.70;99.90;;;;;;5041058;28;20512;-74
2023/12/11 07:29:00;;;;;;;36.78;5.18;;;8.60;99.90;;;;;;5040910;28;20075;-72
2023/12/11 07:31:26;;;;;;;31.27;4.68;;;8.70;99.90;;;;;;5038203;28;20044;-72
2023/12/11 07:33:53;;;;;;;24.30;4.80;;;8.50;99.90;;;;;;5040037;28;20389;-74
2023/12/11 07:36:19;;;;;;;36.60;4.57;;;8.50;99.90;;;;;;5033196;28;20116;-72
2023/12/11 07:38:45;;;;;;;28.50;5.00;;;8.60;99.90;;;;;;5042238;28;20053;-72
2023/12/11 07:41:11;;;;;;;25.13;4.40;;;8.70;99.90;;;;;;5032110;28;20117;-71
2023/12/11 07:43:37;;;;;;;39.28;5.95;;;8.50;99.90;;;;;;5030951;28;20107;-71
2023/12/11 07:46:03;;;;;;;28.90;5.03;;;8.60;99.90;;;;;;5034285;28;20032;-73
2023/12/11 07:48:28;;;;;;;33.42;4.72;;;8.40;99.90;;;;;;5031464;28;20154;-73
2023/12/11 07:50:54;;;;;;;25.02;4.97;;;8.40;99.90;;;;;;5046532;28;20163;-73
2023/12/11 07:53:19;;;;;;;30.35;5.07;;;8.70;99.90;;;;;;5037733;28;20079;-72
2023/12/11 07:55:45;;;;;;;28.60;4.72;;;8.40;99.90;;;;;;5038988;28;20041;-72
2023/12/11 07:58:13;;;;;;;32.05;4.72;;;8.40;99.90;;;;;;5038392;28;20881;-71
2023/12/11 08:00:39;;;;;;;24.05;3.97;;;8.40;99.90;;;;;;5041773;28;20335;-73
2023/12/11 08:03:06;;;;;;;34.33;4.47;;;8.70;99.90;;;;;;5042895;28;20048;-74
2023/12/11 08:05:31;;;;;;;26.10;3.95;;;8.70;99.90;;;;;;5035687;28;20041;-72
2023/12/11 08:07:57;;;;;;;24.05;3.90;;;8.50;99.90;;;;;;5029772;28;20103;-72
2023/12/11 08:10:23;;;;;;;31.60;5.15;;;8.40;99.90;;;;;;5043510;28;20449;-73
2023/12/11 08:12:51;;;;;;;27.05;4.93;;;8.70;99.90;;;;;;5028858;28;20041;-71
2023/12/11 08:15:18;;;;;;;25.50;4.28;;;8.40;99.90;;;;;;5032555;28;20036;-73
2023/12/11 08:17:43;;;;;;;27.63;4.53;;;8.60;99.90;;;;;;5017895;28;20151;-69
2023/12/11 08:20:09;;;;;;;25.48;3.85;;;8.40;99.90;;;;;;5033197;28;20067;-73
2023/12/11 08:22:35;;;;;;;23.92;3.95;;;8.50;99.90;;;;;;5047928;28;20040;-71
2023/12/11 08:25:01;;;;;;;19.52;3.90;;;8.50;99.90;;;;;;5028035;28;20026;-73
2023/12/11 08:27:26;;;;;;;26.60;4.35;;;8.40;99.90;;;;;;5032962;28;20041;-70
2023/12/11 08:29:52;;;;;;;18.42;4.22;;;8.50;99.90;;;;;;5027743;28;20088;-72
2023/12/11 08:32:18;;;;;;;21.63;3.72;;;8.40;99.90;;;;;;5047698;28;20468;-72
2023/12/11 08:34:44;;;;;;;19.35;3.42;;;8.60;99.90;;;;;;5046627;28;20045;-71
2023/12/11 08:37:10;;;;;;;18.15;3.80;;;8.50;99.90;;;;;;5018700;28;20033;-72
2023/12/11 08:39:36;;;;;;;12.20;3.17;;;8.50;99.90;;;;;;5048947;28;20491;-71
2023/12/11 08:42:01;;;;;;;16.63;3.40;;;8.40;99.90;;;;;;5041365;28;20037;-71
2023/12/11 08:44:27;;;;;;;17.33;3.38;;;8.40;99.90;;;;;;5035780;28;20041;-72
2023/12/11 08:46:53;;;;;;;11.95;2.70;;;8.50;99.90;;;;;;5023501;28;20108;-72
2023/12/11 08:49:18;;;;;;;12.30;2.58;;;8.60;99.90;;;;;;5049866;28;20123;-71
2023/12/11 08:51:44;;;;;;;18.88;3.47;;;8.50;99.90;;;;;;5017333;28;20033;-73
2023/12/11 08:54:10;;;;;;;14.48;3.50;;;8.60;99.90;;;;;;5049685;28;20132;-73
2023/12/11 08:56:35;;;;;;;17.00;4.15;;;8.40;99.90;;;;;;5039992;28;20193;-74
2023/12/11 08:59:01;;;;;;;16.13;3.67;;;8.50;99.90;;;;;;5047273;28;20044;-73
2023/12/11 09:01:28;;;;;;;12.80;3.38;;;8.50;99.90;;;;;;5032318;28;20457;-71
2023/12/11 09:03:53;;;;;;;18.45;3.55;;;8.50;99.90;;;;;;5045032;28;20037;-73
2023/12/11 09:06:19;;;;;;;15.90;3.60;;;8.80;99.90;;;;;;5039906;28;20087;-73
2023/12/11 09:08:45;;;;;;;12.75;3.20;;;8.70;99.90;;;;;;5040649;28;20033;-72
2023/12/11 09:11:10;;;;;;;12.35;3.25;;;8.90;99.90;;;;;;5039575;28;20124;-75
2023/12/11 09:13:36;;;;;;;13.48;4.00;;;8.90;99.90;;;;;;5030901;28;20053;-73
2023/12/11 09:16:03;;;;;;;13.10;3.35;;;8.90;99.90;;;;;;5037561;28;20037;-73
2023/12/11 09:18:29;;;;;;;10.55;3.72;;;8.70;99.90;;;;;;5019928;28;20100;-75
2023/12/11 09:20:55;;;;;;;12.35;3.75;;;8.70;99.90;;;;;;5042003;28;20053;-74
2023/12/11 09:23:20;;;;;;;17.50;3.78;;;8.70;99.90;;;;;;5051611;28;20131;-75
2023/12/11 09:25:46;;;;;;;11.02;3.17;;;9.00;99.90;;;;;;5046226;28;20041;-73
2023/12/11 09:28:12;;;;;;;13.73;3.92;;;8.70;99.90;;;;;;5054243;28;20125;-74
2023/12/11 09:30:37;;;;;;;14.50;4.05;;;8.90;99.90;;;;;;5050931;28;20057;-75
2023/12/11 09:33:03;;;;;;;12.55;3.70;;;8.70;99.90;;;;;;5050525;28;20053;-73
2023/12/11 09:35:29;;;;;;;14.85;3.67;;;8.90;99.90;;;;;;5050136;28;20036;-73
2023/12/11 09:37:54;;;;;;;11.48;3.30;;;9.00;99.90;;;;;;5039006;28;20033;-75
2023/12/11 09:40:20;;;;;;;26.38;5.55;;;9.10;99.90;;;;;;5037814;28;20056;-74
2023/12/11 09:42:47;;;;;;;21.45;5.55;;;9.10;99.90;;;;;;5043459;28;20052;-73
2023/12/11 09:45:18;;;;;;;22.65;6.40;;;9.00;99.90;;;;;;5041776;28;20041;-73
2023/12/11 09:47:49;;;;;;;20.50;7.30;;;9.10;99.90;;;;;;5034086;28;20495;-74
2023/12/11 09:50:16;;;;;;;19.85;7.63;;;9.10;99.90;;;;;;5038069;28;20484;-72
2023/12/11 09:52:42;;;;;;;21.88;6.85;;;9.20;99.90;;;;;;5038334;28;20067;-72
2023/12/11 09:55:09;;;;;;;15.98;4.15;;;9.30;99.90;;;;;;5014182;28;20079;-72
2023/12/11 09:57:37;;;;;;;16.50;4.10;;;9.30;99.90;;;;;;5026288;28;20037;-74
2023/12/11 10:00:04;;;;;;;18.92;5.25;;;9.20;99.90;;;;;;5043089;28;20556;-72
2023/12/11 10:02:29;;;;;;;13.13;4.60;;;9.00;99.90;;;;;;5021416;28;20037;-71
2023/12/11 10:05:10;;;;;;;14.55;3.38;;;9.10;99.90;;;;;;5028417;28;20425;-75
2023/12/11 10:07:36;;;;;;;;;;;9.10;99.90;;;;;;5031022;28;20389;-73
2023/12/11 10:10:30;;;;;;;18.45;3.00;;;9.10;99.90;;;;;;5044978;28;19920;-73
2023/12/11 10:12:56;;;;;;;21.55;4.75;;;9.10;99.90;;;;;;5029699;28;20045;-72
2023/12/11 10:15:25;;;;;;;12.73;3.65;;;9.40;99.90;;;;;;5030221;28;20033;-74
2023/12/11 10:18:02;;;;;;;16.97;2.93;;;9.20;99.90;;;;;;5033156;28;20037;-71
2023/12/11 10:20:28;;;;;;;22.25;2.88;;;9.20;99.90;;;;;;5042671;28;20393;-73
2023/12/11 10:22:54;;;;;;;15.63;3.13;;;9.30;99.90;;;;;;5041679;28;20439;-73
2023/12/11 10:25:40;;;;;;;13.52;2.97;;;9.50;99.90;;;;;;5047161;28;20029;-74
2023/12/11 10:28:08;;;;;;;15.02;2.67;;;9.60;99.90;;;;;;5040273;28;20060;-73
2023/12/11 10:30:54;;;;;;;11.20;2.85;;;9.30;99.90;;;;;;5049580;28;20057;-72
2023/12/11 10:33:21;;;;;;;18.85;3.00;;;9.30;99.90;;;;;;5012117;28;20530;-73
2023/12/11 10:35:47;;;;;;;14.32;2.65;;;9.30;99.90;;;;;;5029472;28;20045;-72
2023/12/11 10:38:23;;;;;;;18.48;4.25;;;9.30;99.90;;;;;;5033356;28;20037;-72
2023/12/11 10:40:51;;;;;;;15.23;2.42;;;9.50;99.90;;;;;;5036246;28;20119;-73
2023/12/11 10:43:17;;;;;;;12.77;2.72;;;9.50;99.90;;;;;;5031971;28;20095;-73
2023/12/11 10:45:46;;;;;;;12.07;2.78;;;9.50;99.90;;;;;;5037084;28;20048;-73
2023/12/11 10:48:12;;;;;;;16.38;2.55;;;9.50;99.90;;;;;;5044324;28;20063;-75
2023/12/11 10:50:38;;;;;;;21.88;2.80;;;9.40;99.90;;;;;;5048412;28;20041;-72
2023/12/11 10:53:04;;;;;;;18.58;3.20;;;9.50;99.90;;;;;;5049459;28;20033;-71
2023/12/11 10:55:30;;;;;;;18.75;2.75;;;9.50;99.90;;;;;;5040637;28;20384;-73
2023/12/11 10:58:01;;;;;;;9.93;2.83;;;9.50;99.90;;;;;;5046462;28;20069;-72
2023/12/11 11:00:30;;;;;;;17.45;2.20;;;9.50;99.90;;;;;;5031991;28;20095;-74
2023/12/11 11:02:57;;;;;;;13.45;3.17;;;9.60;99.90;;;;;;5042866;28;20045;-72
2023/12/11 11:05:25;;;;;;;15.77;2.72;;;9.40;99.90;;;;;;5048025;28;20041;-72
2023/12/11 11:08:23;;;;;;;18.83;2.67;;;9.60;99.90;;;;;;5042717;28;20104;-71
2023/12/11 11:10:52;;;;;;;13.32;2.40;;;9.40;99.90;;;;;;5043781;28;20059;-72
2023/12/11 11:13:24;;;;;;;14.50;2.58;;;9.30;99.90;;;;;;5042575;28;20048;-74
2023/12/11 11:15:53;;;;;;;14.88;2.25;;;9.20;99.90;;;;;;5031152;28;20123;-73
2023/12/11 11:18:19;;;;;;;14.33;2.93;;;9.20;99.90;;;;;;5017104;28;20120;-73
2023/12/11 11:21:12;;;;;;;18.23;2.72;;;9.30;99.90;;;;;;5020826;28;20052;-71
2023/12/11 11:23:42;;;;;;;17.02;2.60;;;9.30;99.90;;;;;;5047525;28;20487;-73
2023/12/11 11:26:32;;;;;;;15.18;3.17;;;9.10;99.90;;;;;;5027445;28;20066;-73
2023/12/11 11:28:57;;;;;;;13.50;2.25;;;9.20;99.90;;;;;;5045706;28;20053;-73
2023/12/11 11:31:47;;;;;;;15.80;2.33;;;9.20;99.90;;;;;;5047899;28;20047;-72
2023/12/11 11:34:12;;;;;;;16.20;3.15;;;9.00;99.90;;;;;;5038918;28;20144;-73
2023/12/11 11:36:46;;;;;;;16.15;2.20;;;9.30;99.90;;;;;;5028240;28;20540;-72
2023/12/11 11:39:12;;;;;;;18.38;3.17;;;9.20;99.90;;;;;;5030690;28;20041;-73
2023/12/11 11:41:38;;;;;;;12.60;2.88;;;9.10;99.90;;;;;;5042024;28;20049;-73
2023/12/11 11:44:09;;;;;;;14.85;2.50;;;9.20;99.90;;;;;;5042080;28;20120;-74
2023/12/11 11:46:55;;;;;;;17.20;2.88;;;9.10;99.90;;;;;;5024597;28;20107;-72
2023/12/11 11:49:34;;;;;;;13.68;2.35;;;9.10;99.90;;;;;;5027153;28;20049;-74
2023/12/11 11:52:06;;;;;;;16.70;2.90;;;9.10;99.90;;;;;;5039589;28;20029;-76
2023/12/11 11:54:35;;;;;;;12.73;2.10;;;8.90;99.90;;;;;;5045159;28;20071;-72
2023/12/11 11:57:00;;;;;;;10.60;2.15;;;8.90;99.90;;;;;;5036062;28;20113;-74
2023/12/11 11:59:26;;;;;;;19.13;2.38;;;9.10;99.90;;;;;;5041278;28;20144;-78
2023/12/11 12:01:53;;;;;;;12.43;2.28;;;8.80;99.90;;;;;;5045966;28;20033;-74
2023/12/11 12:04:33;;;;;;;13.55;2.10;;;8.80;99.90;;;;;;5043866;28;20119;-77
2023/12/11 12:07:01;;;;;;;12.00;2.30;;;8.70;99.90;;;;;;5043371;28;20139;-79
2023/12/11 12:09:27;;;;;;;9.95;2.03;;;8.80;99.90;;;;;;5036992;28;20102;-73
2023/12/11 12:11:53;;;;;;;9.98;1.67;;;8.70;99.90;;;;;;5025412;28;20037;-75
2023/12/11 12:14:20;;;;;;;7.13;1.50;;;8.70;99.90;;;;;;5045730;28;20039;-80
2023/12/11 12:16:46;;;;;;;13.88;2.47;;;8.80;99.90;;;;;;5022355;28;20165;-76
2023/12/11 12:19:12;;;;;;;16.63;2.53;;;8.80;99.90;;;;;;5039686;28;20125;-79
2023/12/11 12:21:54;;;;;;;12.80;2.90;;;8.80;99.90;;;;;;5034442;28;20049;-76
2023/12/11 12:24:20;;;;;;;9.95;2.45;;;8.60;99.90;;;;;;5028415;28;20113;-72
2023/12/11 12:26:52;;;;;;;19.48;3.17;;;8.80;99.90;;;;;;5040651;28;20064;-73
2023/12/11 12:29:18;;;;;;;22.63;3.08;;;8.70;99.90;;;;;;5029077;28;20037;-72
2023/12/11 12:31:45;;;;;;;16.55;3.00;;;8.80;99.90;;;;;;5039827;28;20482;-73
2023/12/11 12:34:12;;;;;;;17.25;3.10;;;8.60;99.90;;;;;;5041115;28;20046;-73
2023/12/11 12:36:38;;;;;;;18.60;3.58;;;8.60;99.90;;;;;;5030517;28;20041;-73
2023/12/11 12:39:05;;;;;;;20.23;3.20;;;8.60;99.90;;;;;;5027397;28;20129;-74
2023/12/11 12:41:31;;;;;;;12.40;3.30;;;8.70;99.90;;;;;;5045730;28;20037;-70
2023/12/11 12:44:01;;;;;;;22.77;4.63;;;8.50;99.90;;;;;;5038185;28;20045;-73
2023/12/11 12:46:37;;;;;;;20.05;3.05;;;8.70;99.90;;;;;;5040266;28;20056;-70